KRNH/RNH METAR and TAF weather

Enter ICAO airport designator
Station Type Date Time Source
KRNH METAR 2021/03/03 01:35 UTC NOAA

KRNH 030135Z AUTO 22005KT 10SM CLR 02/M01 A2979 RMK AO2 T00151015


Station Type Date Time Source
KRNH Decoded METAR 2021/03/03 01:35 UTC NOAA

New Richmond, New Richmond Municipal Airport, WI, United States (KRNH) 45-08-54N 092-32-17W
Mar 02, 2021 - 08:35 PM EST / 2021.03.03 0135 UTC
Wind: from the SW (220 degrees) at 6 MPH (5 KT):0
Visibility: 10 mile(s):0
Sky conditions: clear
Temperature: 34.7 F (1.5 C)
Windchill: 30 F (-1 C):1
Dew Point: 29.3 F (-1.5 C)
Relative Humidity: 80%
Pressure (altimeter): 29.79 in. Hg (1008 hPa)
ob: KRNH 030135Z AUTO 22005KT 10SM CLR 02/M01 A2979 RMK AO2 T00151015
cycle: 1

Station Type Date Time Source
KRNH TAF 2021/03/02 18:33 UTC NOAA

TAF KRNH 021730Z 0218/0318 22016G24KT P6SM SKC
FM022100 23011KT P6SM SKC
FM030300 26005KT P6SM SCT200
FM030500 29004KT 6SM BR SCT200
FM031300 34004KT P6SM SCT200

Example: see airport list